sensor_id;sensor_type;location;lat;lon;timestamp;temperature;humidity
68274;SHT30;55104;47.356;19.448;2022-07-15T00:01:09;20.20;59.15
68274;SHT30;55104;47.356;19.448;2022-07-15T00:04:12;20.17;59.19
68274;SHT30;55104;47.356;19.448;2022-07-15T00:07:14;20.14;59.02
68274;SHT30;55104;47.356;19.448;2022-07-15T00:10:16;20.16;59.18
68274;SHT30;55104;47.356;19.448;2022-07-15T00:13:23;20.12;59.00
68274;SHT30;55104;47.356;19.448;2022-07-15T00:16:26;20.10;59.53
68274;SHT30;55104;47.356;19.448;2022-07-15T00:19:29;20.10;59.83
68274;SHT30;55104;47.356;19.448;2022-07-15T00:22:31;20.14;59.98
68274;SHT30;55104;47.356;19.448;2022-07-15T00:25:33;20.26;60.07
68274;SHT30;55104;47.356;19.448;2022-07-15T00:28:36;20.40;60.06
68274;SHT30;55104;47.356;19.448;2022-07-15T00:31:38;20.67;58.56
68274;SHT30;55104;47.356;19.448;2022-07-15T00:34:40;20.95;57.42
68274;SHT30;55104;47.356;19.448;2022-07-15T00:37:42;20.96;57.37
68274;SHT30;55104;47.356;19.448;2022-07-15T00:40:49;20.98;57.75
68274;SHT30;55104;47.356;19.448;2022-07-15T00:43:52;20.96;57.50
68274;SHT30;55104;47.356;19.448;2022-07-15T00:46:54;20.92;57.55
68274;SHT30;55104;47.356;19.448;2022-07-15T00:49:57;20.99;57.72
68274;SHT30;55104;47.356;19.448;2022-07-15T00:53:03;20.92;57.46
68274;SHT30;55104;47.356;19.448;2022-07-15T00:56:08;20.84;57.88
68274;SHT30;55104;47.356;19.448;2022-07-15T00:59:12;20.84;58.23
68274;SHT30;55104;47.356;19.448;2022-07-15T01:02:15;20.74;58.31
68274;SHT30;55104;47.356;19.448;2022-07-15T01:05:20;20.69;58.63
68274;SHT30;55104;47.356;19.448;2022-07-15T01:08:22;20.59;59.03
68274;SHT30;55104;47.356;19.448;2022-07-15T01:11:26;20.63;58.98
68274;SHT30;55104;47.356;19.448;2022-07-15T01:14:29;20.59;58.80
68274;SHT30;55104;47.356;19.448;2022-07-15T01:17:31;20.61;58.92
68274;SHT30;55104;47.356;19.448;2022-07-15T01:20:42;20.63;59.38
68274;SHT30;55104;47.356;19.448;2022-07-15T01:23:44;20.69;58.89
68274;SHT30;55104;47.356;19.448;2022-07-15T01:27:05;20.69;58.74
68274;SHT30;55104;47.356;19.448;2022-07-15T01:30:08;20.78;58.67
68274;SHT30;55104;47.356;19.448;2022-07-15T01:33:10;20.78;59.12
68274;SHT30;55104;47.356;19.448;2022-07-15T01:36:13;20.76;59.42
68274;SHT30;55104;47.356;19.448;2022-07-15T01:39:22;20.72;59.61
68274;SHT30;55104;47.356;19.448;2022-07-15T01:42:40;20.74;59.74
68274;SHT30;55104;47.356;19.448;2022-07-15T01:45:46;20.78;59.45
68274;SHT30;55104;47.356;19.448;2022-07-15T01:48:54;20.78;59.32
68274;SHT30;55104;47.356;19.448;2022-07-15T01:52:20;20.75;59.23
68274;SHT30;55104;47.356;19.448;2022-07-15T01:55:23;20.76;59.35
68274;SHT30;55104;47.356;19.448;2022-07-15T01:58:27;20.69;59.54
68274;SHT30;55104;47.356;19.448;2022-07-15T02:01:30;20.61;59.80
68274;SHT30;55104;47.356;19.448;2022-07-15T02:04:36;20.58;59.85
68274;SHT30;55104;47.356;19.448;2022-07-15T02:07:39;20.55;59.89
68274;SHT30;55104;47.356;19.448;2022-07-15T02:10:43;20.48;60.04
68274;SHT30;55104;47.356;19.448;2022-07-15T02:13:49;20.47;60.22
68274;SHT30;55104;47.356;19.448;2022-07-15T02:16:53;20.38;61.14
68274;SHT30;55104;47.356;19.448;2022-07-15T02:20:03;20.27;61.22
68274;SHT30;55104;47.356;19.448;2022-07-15T02:23:06;20.19;62.32
68274;SHT30;55104;47.356;19.448;2022-07-15T02:26:08;20.08;62.57
68274;SHT30;55104;47.356;19.448;2022-07-15T02:29:11;19.99;62.87
68274;SHT30;55104;47.356;19.448;2022-07-15T02:32:14;19.86;63.49
68274;SHT30;55104;47.356;19.448;2022-07-15T02:35:16;19.85;62.97
68274;SHT30;55104;47.356;19.448;2022-07-15T02:38:20;19.81;63.55
68274;SHT30;55104;47.356;19.448;2022-07-15T02:41:25;19.79;63.26
68274;SHT30;55104;47.356;19.448;2022-07-15T02:44:28;19.85;63.48
68274;SHT30;55104;47.356;19.448;2022-07-15T02:47:31;19.83;63.72
68274;SHT30;55104;47.356;19.448;2022-07-15T02:50:34;19.82;63.76
68274;SHT30;55104;47.356;19.448;2022-07-15T02:53:37;19.81;64.24
68274;SHT30;55104;47.356;19.448;2022-07-15T02:56:43;19.85;64.03
68274;SHT30;55104;47.356;19.448;2022-07-15T02:59:45;19.87;63.70
68274;SHT30;55104;47.356;19.448;2022-07-15T03:02:49;19.89;64.01
68274;SHT30;55104;47.356;19.448;2022-07-15T03:05:52;19.95;63.51
68274;SHT30;55104;47.356;19.448;2022-07-15T03:08:55;19.95;63.53
68274;SHT30;55104;47.356;19.448;2022-07-15T03:11:57;19.99;63.43
68274;SHT30;55104;47.356;19.448;2022-07-15T03:15:00;19.95;63.80
68274;SHT30;55104;47.356;19.448;2022-07-15T03:18:05;19.87;64.15
68274;SHT30;55104;47.356;19.448;2022-07-15T03:21:07;19.86;64.00
68274;SHT30;55104;47.356;19.448;2022-07-15T03:24:11;19.81;64.33
68274;SHT30;55104;47.356;19.448;2022-07-15T03:27:17;19.81;64.65
68274;SHT30;55104;47.356;19.448;2022-07-15T03:30:21;19.79;64.73
68274;SHT30;55104;47.356;19.448;2022-07-15T03:33:24;19.78;64.77
68274;SHT30;55104;47.356;19.448;2022-07-15T03:36:28;19.81;64.77
68274;SHT30;55104;47.356;19.448;2022-07-15T03:39:30;19.82;65.21
68274;SHT30;55104;47.356;19.448;2022-07-15T03:42:33;19.87;65.32
68274;SHT30;55104;47.356;19.448;2022-07-15T03:45:36;19.95;65.42
68274;SHT30;55104;47.356;19.448;2022-07-15T03:48:38;19.99;65.40
68274;SHT30;55104;47.356;19.448;2022-07-15T03:51:42;20.02;65.77
68274;SHT30;55104;47.356;19.448;2022-07-15T03:54:45;20.03;65.48
68274;SHT30;55104;47.356;19.448;2022-07-15T03:57:47;20.05;65.19
68274;SHT30;55104;47.356;19.448;2022-07-15T04:00:49;20.10;64.87
68274;SHT30;55104;47.356;19.448;2022-07-15T04:03:52;20.17;64.84
68274;SHT30;55104;47.356;19.448;2022-07-15T04:06:55;20.19;65.38
68274;SHT30;55104;47.356;19.448;2022-07-15T04:09:58;20.23;66.19
68274;SHT30;55104;47.356;19.448;2022-07-15T04:13:00;20.27;66.44
68274;SHT30;55104;47.356;19.448;2022-07-15T04:16:06;20.30;65.74
68274;SHT30;55104;47.356;19.448;2022-07-15T04:19:08;20.34;66.35
68274;SHT30;55104;47.356;19.448;2022-07-15T04:22:11;20.41;66.10
68274;SHT30;55104;47.356;19.448;2022-07-15T04:25:23;20.43;66.90
68274;SHT30;55104;47.356;19.448;2022-07-15T04:28:26;20.41;66.51
68274;SHT30;55104;47.356;19.448;2022-07-15T04:31:29;20.45;66.51
68274;SHT30;55104;47.356;19.448;2022-07-15T04:34:41;20.52;66.62
68274;SHT30;55104;47.356;19.448;2022-07-15T04:37:44;20.50;66.54
68274;SHT30;55104;47.356;19.448;2022-07-15T04:40:46;20.52;67.11
68274;SHT30;55104;47.356;19.448;2022-07-15T04:43:51;20.55;66.86
68274;SHT30;55104;47.356;19.448;2022-07-15T04:46:53;20.64;67.11
68274;SHT30;55104;47.356;19.448;2022-07-15T04:50:15;20.67;67.48
68274;SHT30;55104;47.356;19.448;2022-07-15T04:53:36;20.76;66.79
68274;SHT30;55104;47.356;19.448;2022-07-15T04:56:39;20.79;66.14
68274;SHT30;55104;47.356;19.448;2022-07-15T04:59:42;20.85;65.54
68274;SHT30;55104;47.356;19.448;2022-07-15T05:02:49;20.84;65.98
68274;SHT30;55104;47.356;19.448;2022-07-15T05:05:51;20.81;65.79
68274;SHT30;55104;47.356;19.448;2022-07-15T05:09:00;20.81;65.32
68274;SHT30;55104;47.356;19.448;2022-07-15T05:12:07;20.81;66.20
68274;SHT30;55104;47.356;19.448;2022-07-15T05:15:20;20.88;66.21
68274;SHT30;55104;47.356;19.448;2022-07-15T05:18:22;20.85;66.53
68274;SHT30;55104;47.356;19.448;2022-07-15T05:21:27;20.92;65.83
68274;SHT30;55104;47.356;19.448;2022-07-15T05:24:30;20.99;64.84
68274;SHT30;55104;47.356;19.448;2022-07-15T05:27:34;21.07;64.68
68274;SHT30;55104;47.356;19.448;2022-07-15T05:30:37;21.20;63.70
68274;SHT30;55104;47.356;19.448;2022-07-15T05:33:42;21.19;64.04
68274;SHT30;55104;47.356;19.448;2022-07-15T05:36:45;21.20;65.03
68274;SHT30;55104;47.356;19.448;2022-07-15T05:39:50;21.19;65.26
68274;SHT30;55104;47.356;19.448;2022-07-15T05:43:09;21.19;65.86
68274;SHT30;55104;47.356;19.448;2022-07-15T05:46:14;21.22;65.98
68274;SHT30;55104;47.356;19.448;2022-07-15T05:49:24;21.22;67.36
68274;SHT30;55104;47.356;19.448;2022-07-15T05:52:28;21.22;68.24
68274;SHT30;55104;47.356;19.448;2022-07-15T05:55:31;21.34;66.34
68274;SHT30;55104;47.356;19.448;2022-07-15T05:58:34;21.48;65.76
68274;SHT30;55104;47.356;19.448;2022-07-15T06:01:36;21.61;65.08
68274;SHT30;55104;47.356;19.448;2022-07-15T06:04:38;21.73;65.27
68274;SHT30;55104;47.356;19.448;2022-07-15T06:07:41;21.62;65.09
68274;SHT30;55104;47.356;19.448;2022-07-15T06:10:45;21.77;63.74
68274;SHT30;55104;47.356;19.448;2022-07-15T06:13:48;21.79;63.48
68274;SHT30;55104;47.356;19.448;2022-07-15T06:16:50;21.71;63.79
68274;SHT30;55104;47.356;19.448;2022-07-15T06:19:53;21.73;63.59
68274;SHT30;55104;47.356;19.448;2022-07-15T06:22:55;21.74;63.64
68274;SHT30;55104;47.356;19.448;2022-07-15T06:25:57;21.77;63.27
68274;SHT30;55104;47.356;19.448;2022-07-15T06:29:00;21.69;62.91
68274;SHT30;55104;47.356;19.448;2022-07-15T06:32:03;21.65;62.60
68274;SHT30;55104;47.356;19.448;2022-07-15T06:35:06;21.57;62.58
68274;SHT30;55104;47.356;19.448;2022-07-15T06:38:08;21.43;63.35
68274;SHT30;55104;47.356;19.448;2022-07-15T06:41:10;21.34;64.01
68274;SHT30;55104;47.356;19.448;2022-07-15T06:44:13;21.33;64.44
68274;SHT30;55104;47.356;19.448;2022-07-15T06:47:18;21.26;65.11
68274;SHT30;55104;47.356;19.448;2022-07-15T06:50:21;21.16;65.99
68274;SHT30;55104;47.356;19.448;2022-07-15T06:53:26;21.05;66.45
68274;SHT30;55104;47.356;19.448;2022-07-15T06:56:29;21.03;67.69
68274;SHT30;55104;47.356;19.448;2022-07-15T06:59:31;20.85;69.07
68274;SHT30;55104;47.356;19.448;2022-07-15T07:02:35;20.82;69.33
68274;SHT30;55104;47.356;19.448;2022-07-15T07:05:57;20.69;69.74
68274;SHT30;55104;47.356;19.448;2022-07-15T07:09:19;20.38;72.25
68274;SHT30;55104;47.356;19.448;2022-07-15T07:12:21;20.24;72.87
68274;SHT30;55104;47.356;19.448;2022-07-15T07:15:23;20.27;72.89
68274;SHT30;55104;47.356;19.448;2022-07-15T07:18:26;20.12;74.08
68274;SHT30;55104;47.356;19.448;2022-07-15T07:21:29;20.16;74.44
68274;SHT30;55104;47.356;19.448;2022-07-15T07:24:33;20.17;74.23
68274;SHT30;55104;47.356;19.448;2022-07-15T07:27:35;20.21;74.90
68274;SHT30;55104;47.356;19.448;2022-07-15T07:30:37;20.31;75.36
68274;SHT30;55104;47.356;19.448;2022-07-15T07:33:40;20.31;75.66
68274;SHT30;55104;47.356;19.448;2022-07-15T07:36:43;20.12;76.50
68274;SHT30;55104;47.356;19.448;2022-07-15T07:39:46;20.10;77.11
68274;SHT30;55104;47.356;19.448;2022-07-15T07:42:48;19.90;77.14
68274;SHT30;55104;47.356;19.448;2022-07-15T07:45:50;20.00;76.93
68274;SHT30;55104;47.356;19.448;2022-07-15T07:48:53;20.03;77.10
68274;SHT30;55104;47.356;19.448;2022-07-15T07:52:15;20.09;76.88
68274;SHT30;55104;47.356;19.448;2022-07-15T07:55:17;19.95;77.85
68274;SHT30;55104;47.356;19.448;2022-07-15T07:58:20;19.92;79.05
68274;SHT30;55104;47.356;19.448;2022-07-15T08:01:22;19.92;78.93
68274;SHT30;55104;47.356;19.448;2022-07-15T08:04:24;19.97;78.41
68274;SHT30;55104;47.356;19.448;2022-07-15T08:07:26;19.97;79.37
68274;SHT30;55104;47.356;19.448;2022-07-15T08:10:30;19.93;78.71
68274;SHT30;55104;47.356;19.448;2022-07-15T08:13:32;19.83;79.29
68274;SHT30;55104;47.356;19.448;2022-07-15T08:16:34;19.74;80.01
68274;SHT30;55104;47.356;19.448;2022-07-15T08:19:36;19.76;79.47
68274;SHT30;55104;47.356;19.448;2022-07-15T08:22:39;19.81;79.65
68274;SHT30;55104;47.356;19.448;2022-07-15T08:25:41;19.85;79.77
68274;SHT30;55104;47.356;19.448;2022-07-15T08:28:43;19.89;78.99
68274;SHT30;55104;47.356;19.448;2022-07-15T08:32:06;19.90;78.76
68274;SHT30;55104;47.356;19.448;2022-07-15T08:35:08;20.06;79.75
68274;SHT30;55104;47.356;19.448;2022-07-15T08:38:17;20.20;78.95
68274;SHT30;55104;47.356;19.448;2022-07-15T08:41:20;20.29;78.44
68274;SHT30;55104;47.356;19.448;2022-07-15T08:44:22;20.33;79.04
68274;SHT30;55104;47.356;19.448;2022-07-15T08:47:25;20.26;79.93
68274;SHT30;55104;47.356;19.448;2022-07-15T08:50:47;20.36;79.31
68274;SHT30;55104;47.356;19.448;2022-07-15T08:53:51;20.37;79.70
68274;SHT30;55104;47.356;19.448;2022-07-15T08:56:54;20.30;79.40
68274;SHT30;55104;47.356;19.448;2022-07-15T08:59:56;20.48;78.47
68274;SHT30;55104;47.356;19.448;2022-07-15T09:03:00;20.48;77.91
68274;SHT30;55104;47.356;19.448;2022-07-15T09:06:02;20.69;77.59
68274;SHT30;55104;47.356;19.448;2022-07-15T09:09:24;20.76;76.99
68274;SHT30;55104;47.356;19.448;2022-07-15T09:12:39;20.76;77.56
68274;SHT30;55104;47.356;19.448;2022-07-15T09:15:43;20.74;76.63
68274;SHT30;55104;47.356;19.448;2022-07-15T09:18:49;20.82;76.92
68274;SHT30;55104;47.356;19.448;2022-07-15T09:22:00;20.75;77.03
68274;SHT30;55104;47.356;19.448;2022-07-15T09:25:07;20.79;77.03
68274;SHT30;55104;47.356;19.448;2022-07-15T09:28:09;20.88;76.17
68274;SHT30;55104;47.356;19.448;2022-07-15T09:31:12;20.99;76.64
68274;SHT30;55104;47.356;19.448;2022-07-15T09:34:33;21.07;76.70
68274;SHT30;55104;47.356;19.448;2022-07-15T09:37:54;20.99;75.88
68274;SHT30;55104;47.356;19.448;2022-07-15T09:40:57;21.06;75.06
68274;SHT30;55104;47.356;19.448;2022-07-15T09:44:02;21.09;76.74
68274;SHT30;55104;47.356;19.448;2022-07-15T09:47:16;21.13;76.53
68274;SHT30;55104;47.356;19.448;2022-07-15T09:50:33;21.14;76.54
68274;SHT30;55104;47.356;19.448;2022-07-15T09:53:36;21.14;76.36
68274;SHT30;55104;47.356;19.448;2022-07-15T09:56:39;21.02;77.18
68274;SHT30;55104;47.356;19.448;2022-07-15T09:59:43;20.86;78.23
68274;SHT30;55104;47.356;19.448;2022-07-15T10:02:45;20.91;78.21
68274;SHT30;55104;47.356;19.448;2022-07-15T10:05:51;21.23;77.89
68274;SHT30;55104;47.356;19.448;2022-07-15T10:08:55;21.41;77.35
68274;SHT30;55104;47.356;19.448;2022-07-15T10:12:10;21.74;77.33
68274;SHT30;55104;47.356;19.448;2022-07-15T10:29:04;22.24;72.96
68274;SHT30;55104;47.356;19.448;2022-07-15T10:32:07;22.49;72.06
68274;SHT30;55104;47.356;19.448;2022-07-15T10:35:46;22.36;70.01
68274;SHT30;55104;47.356;19.448;2022-07-15T10:39:02;22.37;71.51
68274;SHT30;55104;47.356;19.448;2022-07-15T10:42:05;22.46;70.69
68274;SHT30;55104;47.356;19.448;2022-07-15T10:45:09;22.58;71.05
68274;SHT30;55104;47.356;19.448;2022-07-15T10:48:28;22.50;70.79
68274;SHT30;55104;47.356;19.448;2022-07-15T10:54:43;22.29;70.71
68274;SHT30;55104;47.356;19.448;2022-07-15T10:57:51;22.22;72.09
68274;SHT30;55104;47.356;19.448;2022-07-15T11:00:55;22.32;71.50
68274;SHT30;55104;47.356;19.448;2022-07-15T11:04:23;22.46;71.97
68274;SHT30;55104;47.356;19.448;2022-07-15T11:07:26;22.49;70.64
68274;SHT30;55104;47.356;19.448;2022-07-15T11:10:30;22.81;70.55
68274;SHT30;55104;47.356;19.448;2022-07-15T11:13:33;22.99;70.54
68274;SHT30;55104;47.356;19.448;2022-07-15T11:16:35;23.22;69.49
68274;SHT30;55104;47.356;19.448;2022-07-15T11:19:38;23.42;68.12
68274;SHT30;55104;47.356;19.448;2022-07-15T11:22:46;23.42;68.05
68274;SHT30;55104;47.356;19.448;2022-07-15T11:25:49;23.20;68.24
68274;SHT30;55104;47.356;19.448;2022-07-15T11:28:53;23.26;67.20
68274;SHT30;55104;47.356;19.448;2022-07-15T11:32:01;22.94;67.38
68274;SHT30;55104;47.356;19.448;2022-07-15T11:35:04;22.92;67.66
68274;SHT30;55104;47.356;19.448;2022-07-15T11:38:06;22.91;67.92
68274;SHT30;55104;47.356;19.448;2022-07-15T11:41:09;22.91;67.90
68274;SHT30;55104;47.356;19.448;2022-07-15T11:44:35;22.79;67.91
68274;SHT30;55104;47.356;19.448;2022-07-15T11:47:51;22.96;67.62
68274;SHT30;55104;47.356;19.448;2022-07-15T11:50:55;22.92;66.98
68274;SHT30;55104;47.356;19.448;2022-07-15T11:53:58;22.77;67.03
68274;SHT30;55104;47.356;19.448;2022-07-15T11:57:03;22.64;67.43
68274;SHT30;55104;47.356;19.448;2022-07-15T12:00:06;22.50;67.85
68274;SHT30;55104;47.356;19.448;2022-07-15T12:03:12;22.57;68.38
68274;SHT30;55104;47.356;19.448;2022-07-15T12:06:17;22.81;67.18
68274;SHT30;55104;47.356;19.448;2022-07-15T12:09:19;23.06;66.49
68274;SHT30;55104;47.356;19.448;2022-07-15T12:12:22;23.18;65.38
68274;SHT30;55104;47.356;19.448;2022-07-15T12:15:24;23.22;65.13
68274;SHT30;55104;47.356;19.448;2022-07-15T12:18:27;23.11;64.93
68274;SHT30;55104;47.356;19.448;2022-07-15T12:21:30;23.11;65.24
68274;SHT30;55104;47.356;19.448;2022-07-15T12:24:40;23.11;65.28
68274;SHT30;55104;47.356;19.448;2022-07-15T12:27:43;22.96;65.08
68274;SHT30;55104;47.356;19.448;2022-07-15T12:30:46;23.05;65.64
68274;SHT30;55104;47.356;19.448;2022-07-15T12:33:50;23.26;65.86
68274;SHT30;55104;47.356;19.448;2022-07-15T12:36:57;23.36;64.78
68274;SHT30;55104;47.356;19.448;2022-07-15T12:40:00;23.46;63.48
68274;SHT30;55104;47.356;19.448;2022-07-15T12:43:03;23.68;62.35
68274;SHT30;55104;47.356;19.448;2022-07-15T12:46:05;23.89;60.96
68274;SHT30;55104;47.356;19.448;2022-07-15T12:49:08;23.93;61.31
68274;SHT30;55104;47.356;19.448;2022-07-15T12:52:33;24.11;60.45
68274;SHT30;55104;47.356;19.448;2022-07-15T12:55:59;24.26;59.58
68274;SHT30;55104;47.356;19.448;2022-07-15T12:59:03;24.09;57.91
68274;SHT30;55104;47.356;19.448;2022-07-15T13:02:05;24.01;58.07
68274;SHT30;55104;47.356;19.448;2022-07-15T13:05:08;24.44;57.94
68274;SHT30;55104;47.356;19.448;2022-07-15T13:08:10;24.70;56.18
68274;SHT30;55104;47.356;19.448;2022-07-15T13:11:13;24.87;55.19
68274;SHT30;55104;47.356;19.448;2022-07-15T13:14:16;25.04;52.93
68274;SHT30;55104;47.356;19.448;2022-07-15T13:17:18;25.12;53.03
68274;SHT30;55104;47.356;19.448;2022-07-15T13:20:20;25.35;48.75
68274;SHT30;55104;47.356;19.448;2022-07-15T13:23:23;25.46;47.78
68274;SHT30;55104;47.356;19.448;2022-07-15T13:26:25;25.76;44.75
68274;SHT30;55104;47.356;19.448;2022-07-15T13:29:27;25.80;43.87
68274;SHT30;55104;47.356;19.448;2022-07-15T13:32:30;26.02;41.49
68274;SHT30;55104;47.356;19.448;2022-07-15T13:35:32;26.39;42.44
68274;SHT30;55104;47.356;19.448;2022-07-15T13:38:35;26.90;42.89
68274;SHT30;55104;47.356;19.448;2022-07-15T13:41:37;27.38;42.08
68274;SHT30;55104;47.356;19.448;2022-07-15T13:44:40;27.34;35.39
68274;SHT30;55104;47.356;19.448;2022-07-15T13:47:42;27.14;31.40
68274;SHT30;55104;47.356;19.448;2022-07-15T13:50:44;26.90;29.60
68274;SHT30;55104;47.356;19.448;2022-07-15T13:54:10;26.94;31.32
68274;SHT30;55104;47.356;19.448;2022-07-15T13:57:12;27.03;29.31
68274;SHT30;55104;47.356;19.448;2022-07-15T14:00:17;27.69;29.82
68274;SHT30;55104;47.356;19.448;2022-07-15T14:03:20;27.66;28.87
68274;SHT30;55104;47.356;19.448;2022-07-15T14:06:23;27.62;30.06
68274;SHT30;55104;47.356;19.448;2022-07-15T14:09:25;27.78;30.20
68274;SHT30;55104;47.356;19.448;2022-07-15T14:12:27;27.97;30.36
68274;SHT30;55104;47.356;19.448;2022-07-15T14:15:30;28.31;29.73
68274;SHT30;55104;47.356;19.448;2022-07-15T14:18:39;28.82;30.11
68274;SHT30;55104;47.356;19.448;2022-07-15T14:21:50;28.76;28.44
68274;SHT30;55104;47.356;19.448;2022-07-15T14:24:55;28.84;27.67
68274;SHT30;55104;47.356;19.448;2022-07-15T14:27:57;28.79;26.46
68274;SHT30;55104;47.356;19.448;2022-07-15T14:30:59;28.79;27.27
68274;SHT30;55104;47.356;19.448;2022-07-15T14:34:02;28.79;26.40
68274;SHT30;55104;47.356;19.448;2022-07-15T14:37:04;28.92;27.37
68274;SHT30;55104;47.356;19.448;2022-07-15T14:40:26;28.45;27.18
68274;SHT30;55104;47.356;19.448;2022-07-15T14:43:28;28.35;27.28
68274;SHT30;55104;47.356;19.448;2022-07-15T14:46:31;28.29;28.16
68274;SHT30;55104;47.356;19.448;2022-07-15T14:49:33;27.94;28.14
68274;SHT30;55104;47.356;19.448;2022-07-15T14:52:35;27.90;27.70
68274;SHT30;55104;47.356;19.448;2022-07-15T14:55:43;28.18;27.73
68274;SHT30;55104;47.356;19.448;2022-07-15T14:58:46;28.22;27.12
68274;SHT30;55104;47.356;19.448;2022-07-15T15:01:48;28.07;27.58
68274;SHT30;55104;47.356;19.448;2022-07-15T15:04:51;27.74;27.30
68274;SHT30;55104;47.356;19.448;2022-07-15T15:07:53;27.61;27.19
68274;SHT30;55104;47.356;19.448;2022-07-15T15:10:55;27.34;27.52
68274;SHT30;55104;47.356;19.448;2022-07-15T15:13:57;27.28;27.10
68274;SHT30;55104;47.356;19.448;2022-07-15T15:17:00;27.24;28.23
68274;SHT30;55104;47.356;19.448;2022-07-15T15:20:05;27.01;28.12
68274;SHT30;55104;47.356;19.448;2022-07-15T15:23:08;26.79;28.25
68274;SHT30;55104;47.356;19.448;2022-07-15T15:26:11;26.84;27.91
68274;SHT30;55104;47.356;19.448;2022-07-15T15:29:27;27.07;28.67
68274;SHT30;55104;47.356;19.448;2022-07-15T15:32:29;27.12;28.36
68274;SHT30;55104;47.356;19.448;2022-07-15T15:35:32;27.10;28.36
68274;SHT30;55104;47.356;19.448;2022-07-15T15:38:34;27.20;27.37
68274;SHT30;55104;47.356;19.448;2022-07-15T15:41:36;27.06;27.98
68274;SHT30;55104;47.356;19.448;2022-07-15T15:44:39;27.11;27.33
68274;SHT30;55104;47.356;19.448;2022-07-15T15:47:41;27.17;26.72
68274;SHT30;55104;47.356;19.448;2022-07-15T15:50:43;27.10;27.33
68274;SHT30;55104;47.356;19.448;2022-07-15T15:53:45;26.73;28.14
68274;SHT30;55104;47.356;19.448;2022-07-15T15:56:48;26.51;28.23
68274;SHT30;55104;47.356;19.448;2022-07-15T15:59:51;26.22;28.16
68274;SHT30;55104;47.356;19.448;2022-07-15T16:02:53;26.20;28.88
68274;SHT30;55104;47.356;19.448;2022-07-15T16:05:55;26.25;27.96
68274;SHT30;55104;47.356;19.448;2022-07-15T16:08:57;26.09;28.20
68274;SHT30;55104;47.356;19.448;2022-07-15T16:12:00;26.15;27.73
68274;SHT30;55104;47.356;19.448;2022-07-15T16:15:03;26.05;28.31
68274;SHT30;55104;47.356;19.448;2022-07-15T16:18:05;26.11;28.08
68274;SHT30;55104;47.356;19.448;2022-07-15T16:21:08;26.32;27.90
68274;SHT30;55104;47.356;19.448;2022-07-15T16:24:10;26.64;27.49
68274;SHT30;55104;47.356;19.448;2022-07-15T16:27:13;26.96;27.66
68274;SHT30;55104;47.356;19.448;2022-07-15T16:30:15;27.08;27.72
68274;SHT30;55104;47.356;19.448;2022-07-15T16:33:26;27.04;27.87
68274;SHT30;55104;47.356;19.448;2022-07-15T16:36:28;26.88;28.44
68274;SHT30;55104;47.356;19.448;2022-07-15T16:39:30;27.08;28.88
68274;SHT30;55104;47.356;19.448;2022-07-15T16:42:32;27.10;28.39
68274;SHT30;55104;47.356;19.448;2022-07-15T16:45:35;27.07;28.77
68274;SHT30;55104;47.356;19.448;2022-07-15T16:48:39;26.77;27.93
68274;SHT30;55104;47.356;19.448;2022-07-15T16:51:41;26.48;27.77
68274;SHT30;55104;47.356;19.448;2022-07-15T16:54:43;26.36;28.53
68274;SHT30;55104;47.356;19.448;2022-07-15T16:57:45;26.26;28.39
68274;SHT30;55104;47.356;19.448;2022-07-15T17:00:47;26.01;27.22
68274;SHT30;55104;47.356;19.448;2022-07-15T17:03:50;25.94;27.65
68274;SHT30;55104;47.356;19.448;2022-07-15T17:06:52;25.76;27.94
68274;SHT30;55104;47.356;19.448;2022-07-15T17:09:54;25.76;27.97
68274;SHT30;55104;47.356;19.448;2022-07-15T17:12:56;25.65;27.92
68274;SHT30;55104;47.356;19.448;2022-07-15T17:15:59;25.52;28.42
68274;SHT30;55104;47.356;19.448;2022-07-15T17:19:01;25.43;28.55
68274;SHT30;55104;47.356;19.448;2022-07-15T17:22:03;25.36;29.22
68274;SHT30;55104;47.356;19.448;2022-07-15T17:25:06;25.11;29.74
68274;SHT30;55104;47.356;19.448;2022-07-15T17:28:09;24.87;29.90
68274;SHT30;55104;47.356;19.448;2022-07-15T17:31:11;24.84;30.37
68274;SHT30;55104;47.356;19.448;2022-07-15T17:34:13;24.74;31.17
68274;SHT30;55104;47.356;19.448;2022-07-15T17:37:16;24.64;31.08
68274;SHT30;55104;47.356;19.448;2022-07-15T17:40:18;24.56;32.02
68274;SHT30;55104;47.356;19.448;2022-07-15T17:43:20;24.55;31.69
68274;SHT30;55104;47.356;19.448;2022-07-15T17:46:22;24.59;31.71
68274;SHT30;55104;47.356;19.448;2022-07-15T17:49:24;24.39;32.20
68274;SHT30;55104;47.356;19.448;2022-07-15T17:52:27;24.25;31.73
68274;SHT30;55104;47.356;19.448;2022-07-15T17:55:29;24.15;32.21
68274;SHT30;55104;47.356;19.448;2022-07-15T17:58:31;24.06;32.31
68274;SHT30;55104;47.356;19.448;2022-07-15T18:01:34;24.02;32.08
68274;SHT30;55104;47.356;19.448;2022-07-15T18:04:36;23.93;32.22
68274;SHT30;55104;47.356;19.448;2022-07-15T18:07:38;23.81;32.36
68274;SHT30;55104;47.356;19.448;2022-07-15T18:10:41;23.70;32.90
68274;SHT30;55104;47.356;19.448;2022-07-15T18:13:43;23.68;32.77
68274;SHT30;55104;47.356;19.448;2022-07-15T18:16:46;23.46;33.47
68274;SHT30;55104;47.356;19.448;2022-07-15T18:19:48;23.29;33.67
68274;SHT30;55104;47.356;19.448;2022-07-15T18:22:50;23.22;33.76
68274;SHT30;55104;47.356;19.448;2022-07-15T18:25:52;23.22;33.55
68274;SHT30;55104;47.356;19.448;2022-07-15T18:28:54;23.12;33.78
68274;SHT30;55104;47.356;19.448;2022-07-15T18:31:57;23.06;33.99
68274;SHT30;55104;47.356;19.448;2022-07-15T18:34:59;22.96;34.45
68274;SHT30;55104;47.356;19.448;2022-07-15T18:38:01;22.94;34.55
68274;SHT30;55104;47.356;19.448;2022-07-15T18:41:06;22.84;34.62
68274;SHT30;55104;47.356;19.448;2022-07-15T18:44:08;22.74;34.68
68274;SHT30;55104;47.356;19.448;2022-07-15T18:47:11;22.65;35.10
68274;SHT30;55104;47.356;19.448;2022-07-15T18:50:13;22.61;34.57
68274;SHT30;55104;47.356;19.448;2022-07-15T18:53:23;22.53;35.03
68274;SHT30;55104;47.356;19.448;2022-07-15T18:56:25;22.56;34.41
68274;SHT30;55104;47.356;19.448;2022-07-15T18:59:28;22.69;34.40
68274;SHT30;55104;47.356;19.448;2022-07-15T19:02:30;22.61;34.64
68274;SHT30;55104;47.356;19.448;2022-07-15T19:05:33;22.43;34.86
68274;SHT30;55104;47.356;19.448;2022-07-15T19:08:36;22.37;35.45
68274;SHT30;55104;47.356;19.448;2022-07-15T19:11:38;22.22;35.91
68274;SHT30;55104;47.356;19.448;2022-07-15T19:14:40;21.96;36.49
68274;SHT30;55104;47.356;19.448;2022-07-15T19:17:43;21.81;37.07
68274;SHT30;55104;47.356;19.448;2022-07-15T19:20:47;21.77;37.05
68274;SHT30;55104;47.356;19.448;2022-07-15T19:23:56;21.74;37.18